createdAt,value
2023-03-26T00:03:08.015Z,61.94
2023-03-26T00:08:09.891Z,62.20
2023-03-26T00:13:11.419Z,62.14
2023-03-26T00:18:12.848Z,61.88
2023-03-26T00:23:14.240Z,61.80
2023-03-26T00:28:17.040Z,61.79
2023-03-26T00:33:18.448Z,62.05
2023-03-26T00:38:22.338Z,62.31
2023-03-26T00:43:23.706Z,62.01
2023-03-26T00:48:38.230Z,62.00
2023-03-26T00:53:47.985Z,62.24
2023-03-26T00:58:50.011Z,62.66
2023-03-26T01:04:07.533Z,62.66
2023-03-26T01:09:20.688Z,62.54
2023-03-26T01:14:26.656Z,62.83
2023-03-26T01:19:37.878Z,62.78
2023-03-26T01:24:40.825Z,63.10
2023-03-26T01:30:08.000Z,63.40
2023-03-26T01:35:32.877Z,63.37
2023-03-26T01:40:46.650Z,63.19
2023-03-26T01:45:49.732Z,63.48
2023-03-26T01:50:53.560Z,63.73
2023-03-26T01:56:31.373Z,63.62
2023-03-26T02:01:54.890Z,63.78
2023-03-26T02:07:09.179Z,63.84
2023-03-26T02:12:10.878Z,63.99
2023-03-26T02:17:12.238Z,63.63
2023-03-26T02:22:16.193Z,63.99
2023-03-26T02:27:18.361Z,64.17
2023-03-26T02:32:20.097Z,63.96
2023-03-26T02:37:21.404Z,63.74
2023-03-26T02:42:23.025Z,63.48
2023-03-26T02:47:24.404Z,63.66
2023-03-26T02:52:25.767Z,64.32
2023-03-26T02:57:27.173Z,64.22
2023-03-26T03:02:29.188Z,64.47
2023-03-26T03:07:30.821Z,64.30
2023-03-26T03:12:32.145Z,64.41
2023-03-26T03:17:33.589Z,64.55
2023-03-26T03:22:36.081Z,64.26
2023-03-26T03:27:39.265Z,64.34
2023-03-26T03:32:40.702Z,64.24
2023-03-26T03:37:42.179Z,64.04
2023-03-26T03:42:43.561Z,64.27
2023-03-26T03:47:44.968Z,64.33
2023-03-26T03:52:46.302Z,64.21
2023-03-26T03:57:47.872Z,64.28
2023-03-26T04:02:49.364Z,64.02
2023-03-26T04:07:50.750Z,64.13
2023-03-26T04:12:52.203Z,64.38
2023-03-26T04:17:53.611Z,64.48
2023-03-26T04:22:55.040Z,65.08
2023-03-26T04:27:58.373Z,65.63
2023-03-26T04:33:04.037Z,66.41
2023-03-26T04:38:06.474Z,66.42
2023-03-26T04:43:12.195Z,66.47
2023-03-26T04:48:14.587Z,67.06
2023-03-26T04:53:21.087Z,67.47
2023-03-26T04:58:32.746Z,67.51
2023-03-26T05:03:34.130Z,67.25
2023-03-26T05:08:35.533Z,67.52
2023-03-26T05:13:37.557Z,67.54
2023-03-26T05:18:39.347Z,67.38
2023-03-26T05:23:40.975Z,67.37
2023-03-26T05:28:42.652Z,67.43
2023-03-26T05:33:44.083Z,67.36
2023-03-26T05:38:49.591Z,67.62
2023-03-26T05:43:51.198Z,67.35
2023-03-26T05:48:53.857Z,67.05
2023-03-26T05:53:55.228Z,67.33
2023-03-26T05:58:56.992Z,67.06
2023-03-26T06:03:58.478Z,67.17
2023-03-26T06:09:02.000Z,67.55
2023-03-26T06:14:04.127Z,67.47
2023-03-26T06:19:05.562Z,67.75
2023-03-26T06:24:07.302Z,68.41
2023-03-26T06:29:09.092Z,67.71
2023-03-26T06:34:10.715Z,67.69
2023-03-26T06:39:12.051Z,67.79
2023-03-26T06:44:13.419Z,67.94
2023-03-26T06:49:14.780Z,67.70
2023-03-26T06:54:16.635Z,68.12
2023-03-26T06:59:18.101Z,68.25
2023-03-26T07:04:19.466Z,68.63
2023-03-26T07:09:20.806Z,68.63
2023-03-26T07:14:22.133Z,68.69
2023-03-26T07:19:23.481Z,68.49
2023-03-26T07:24:25.528Z,68.77
2023-03-26T07:29:35.239Z,68.52
2023-03-26T07:35:07.573Z,68.85
2023-03-26T07:40:46.242Z,69.06
2023-03-26T07:45:48.015Z,69.26
2023-03-26T07:50:49.666Z,69.62
2023-03-26T07:56:03.040Z,70.46
2023-03-26T08:01:40.456Z,70.96
2023-03-26T08:06:50.673Z,71.08
2023-03-26T08:12:07.543Z,71.42
2023-03-26T08:17:17.053Z,71.48
2023-03-26T08:22:34.152Z,71.69
2023-03-26T08:27:49.890Z,72.09
2023-03-26T08:33:00.202Z,72.37
2023-03-26T08:38:01.590Z,72.25
2023-03-26T08:43:23.169Z,72.48
2023-03-26T08:48:33.419Z,72.96
2023-03-26T08:53:57.567Z,73.11
2023-03-26T08:59:25.950Z,72.83
2023-03-26T09:04:57.486Z,73.45
2023-03-26T09:10:09.033Z,73.58
2023-03-26T09:15:16.328Z,73.90
2023-03-26T09:20:48.256Z,73.95
2023-03-26T09:26:11.591Z,75.25
2023-03-26T09:31:31.415Z,75.24
2023-03-26T09:36:47.793Z,75.98
2023-03-26T09:42:08.935Z,76.33
2023-03-26T09:47:49.102Z,76.52
2023-03-26T09:53:08.971Z,76.50
2023-03-26T09:58:51.355Z,76.29
2023-03-26T10:04:02.363Z,75.97
2023-03-26T10:09:22.548Z,75.84
2023-03-26T10:14:34.928Z,75.85
2023-03-26T10:19:51.853Z,75.88
2023-03-26T10:25:22.883Z,76.18
2023-03-26T10:30:24.940Z,76.64
2023-03-26T10:35:45.972Z,76.07
2023-03-26T10:41:10.838Z,76.16
2023-03-26T10:46:43.794Z,76.41
2023-03-26T10:51:53.684Z,75.90
2023-03-26T10:56:56.409Z,75.76
2023-03-26T11:02:29.491Z,75.49
2023-03-26T11:07:44.493Z,75.75
2023-03-26T11:13:14.896Z,76.09
2023-03-26T11:18:47.819Z,75.55
2023-03-26T11:24:04.919Z,75.65
2023-03-26T11:29:30.934Z,75.63
2023-03-26T11:34:49.197Z,75.13
2023-03-26T11:39:55.873Z,75.08
2023-03-26T11:45:02.416Z,75.59
2023-03-26T11:50:08.244Z,75.08
2023-03-26T11:55:12.945Z,75.60
2023-03-26T12:00:19.395Z,75.97
2023-03-26T12:05:24.849Z,75.86
2023-03-26T12:10:38.614Z,75.79
2023-03-26T12:15:43.782Z,76.60
2023-03-26T12:20:45.335Z,76.48
2023-03-26T12:26:05.619Z,75.08
2023-03-26T12:31:07.514Z,74.69
2023-03-26T12:36:19.195Z,74.51
2023-03-26T12:42:36.680Z,74.12
2023-03-26T12:47:58.789Z,74.08
2023-03-26T12:53:03.614Z,73.01
2023-03-26T12:58:28.384Z,72.82
2023-03-26T13:03:41.751Z,72.05
2023-03-26T13:09:05.138Z,72.25
2023-03-26T13:14:26.991Z,71.77
2023-03-26T13:19:39.146Z,72.09
2023-03-26T13:25:13.386Z,71.25
2023-03-26T13:30:32.296Z,70.06
2023-03-26T13:35:56.528Z,68.63
2023-03-26T13:41:21.506Z,67.12
2023-03-26T13:46:48.854Z,66.33
2023-03-26T13:51:57.950Z,64.77
2023-03-26T14:02:53.283Z,63.13
2023-03-26T14:08:13.641Z,64.31
2023-03-26T14:13:17.980Z,68.01
2023-03-26T14:18:36.797Z,68.43
2023-03-26T14:24:11.729Z,67.75
2023-03-26T14:29:56.642Z,67.21
2023-03-26T14:35:25.863Z,65.38
2023-03-26T14:40:52.219Z,64.07
2023-03-26T14:46:26.542Z,62.83
2023-03-26T14:51:46.294Z,61.73
2023-03-26T14:57:12.547Z,59.81
2023-03-26T15:02:39.510Z,57.16
2023-03-26T15:08:12.229Z,56.45
2023-03-26T15:13:42.529Z,57.06
2023-03-26T15:19:18.716Z,57.33
2023-03-26T15:24:57.488Z,57.56
2023-03-26T15:30:15.030Z,57.02
2023-03-26T15:35:26.935Z,58.52
2023-03-26T15:40:48.981Z,57.82
2023-03-26T15:46:24.034Z,57.81
2023-03-26T15:51:50.851Z,66.88
2023-03-26T15:57:01.372Z,69.69
2023-03-26T16:02:34.685Z,71.00
2023-03-26T16:50:56.697Z,74.00
2023-03-26T16:56:28.063Z,74.11
2023-03-26T17:01:45.810Z,74.79
2023-03-26T17:07:09.022Z,74.58
2023-03-26T17:12:35.430Z,74.80
2023-03-26T17:18:09.213Z,74.79
2023-03-26T17:23:31.095Z,74.65
2023-03-26T17:29:09.616Z,74.85
2023-03-26T17:34:39.142Z,74.63
2023-03-26T17:39:40.684Z,75.00
2023-03-26T17:44:45.669Z,74.51
2023-03-26T17:49:50.923Z,74.76
2023-03-26T17:54:55.751Z,75.14
2023-03-26T17:59:59.557Z,75.43
2023-03-26T18:05:03.337Z,76.14
2023-03-26T18:10:28.826Z,76.63
2023-03-26T18:15:35.911Z,77.32
2023-03-26T18:20:38.261Z,77.74
2023-03-26T18:25:40.994Z,77.26
2023-03-26T18:30:48.462Z,77.35
2023-03-26T18:35:54.187Z,77.03
2023-03-26T18:40:56.353Z,76.18
2023-03-26T18:45:58.096Z,76.37
2023-03-26T18:51:05.809Z,76.32
2023-03-26T18:56:36.083Z,76.48
2023-03-26T19:01:38.043Z,76.04
2023-03-26T19:06:42.162Z,76.81
2023-03-26T19:11:45.283Z,76.73
2023-03-26T19:16:53.981Z,76.38
2023-03-26T19:21:58.383Z,76.44
2023-03-26T19:27:01.198Z,77.02
2023-03-26T19:32:17.406Z,76.88
2023-03-26T19:37:22.187Z,77.45
2023-03-26T19:42:43.063Z,77.41
2023-03-26T19:47:50.395Z,77.70
2023-03-26T19:53:16.619Z,77.64
2023-03-26T19:58:19.573Z,77.73
2023-03-26T20:03:26.587Z,77.61
2023-03-26T20:08:28.179Z,77.00
2023-03-26T20:13:31.116Z,77.05
2023-03-26T20:18:33.158Z,77.37
2023-03-26T20:23:34.575Z,76.97
2023-03-26T20:28:42.451Z,77.23
2023-03-26T20:33:50.546Z,77.71
2023-03-26T20:38:52.285Z,77.49
2023-03-26T20:43:53.638Z,77.33
2023-03-26T20:48:57.075Z,77.27
2023-03-26T20:53:58.525Z,77.21
2023-03-26T20:59:10.375Z,77.13
2023-03-26T21:04:13.833Z,76.94
2023-03-26T21:09:23.275Z,76.71
2023-03-26T21:14:29.987Z,77.13
2023-03-26T21:19:31.765Z,77.27
2023-03-26T21:24:58.939Z,76.90
2023-03-26T21:30:00.567Z,76.87
2023-03-26T21:35:05.020Z,76.95
2023-03-26T21:40:25.821Z,76.80
2023-03-26T21:45:27.757Z,76.73
2023-03-26T21:50:29.730Z,76.37
2023-03-26T21:55:40.716Z,76.06
2023-03-26T22:00:53.961Z,76.24
2023-03-26T22:06:06.987Z,76.63
2023-03-26T22:11:11.156Z,76.21
2023-03-26T22:16:13.017Z,76.19
2023-03-26T22:21:14.384Z,75.74
2023-03-26T22:26:16.143Z,75.94
2023-03-26T22:31:17.694Z,76.04
2023-03-26T22:36:23.348Z,75.23
2023-03-26T22:41:25.705Z,74.93
2023-03-26T22:46:27.540Z,74.90
2023-03-26T22:51:29.679Z,75.16
2023-03-26T22:56:31.001Z,75.40
2023-03-26T23:01:32.658Z,74.69
2023-03-26T23:06:33.998Z,75.25
2023-03-26T23:11:35.335Z,75.12
2023-03-26T23:16:38.347Z,74.89
2023-03-26T23:21:39.928Z,74.53
2023-03-26T23:26:50.470Z,74.85
2023-03-26T23:31:53.876Z,75.03
2023-03-26T23:36:55.507Z,75.42
2023-03-26T23:41:56.839Z,75.41
2023-03-26T23:47:00.424Z,75.48
2023-03-26T23:52:01.902Z,74.82
2023-03-26T23:57:03.425Z,75.69
